createdAt,value
2019-05-05T00:02:10.385Z,7.40
2019-05-05T00:04:21.103Z,7.30
2019-05-05T00:06:25.061Z,7.80
2019-05-05T00:08:28.762Z,7.80
2019-05-05T00:10:34.787Z,7.30
2019-05-05T00:12:56.174Z,7.10
2019-05-05T00:15:01.397Z,7.40
2019-05-05T00:17:06.646Z,8.00
2019-05-05T00:19:10.314Z,7.90
2019-05-05T00:21:15.170Z,7.60
2019-05-05T00:23:18.987Z,8.40
2019-05-05T00:25:24.847Z,8.70
2019-05-05T00:27:28.138Z,8.20
2019-05-05T00:29:31.790Z,7.30
2019-05-05T00:31:35.466Z,7.70
2019-05-05T00:33:39.138Z,7.90
2019-05-05T00:35:45.006Z,7.50
2019-05-05T00:37:48.231Z,8.00
2019-05-05T00:39:51.885Z,8.20
2019-05-05T00:41:57.039Z,7.70
2019-05-05T00:44:00.707Z,7.90
2019-05-05T00:46:05.918Z,6.90
2019-05-05T00:48:15.335Z,6.20
2019-05-05T00:50:18.166Z,6.90
2019-05-05T00:52:21.839Z,7.20
2019-05-05T00:54:25.507Z,7.10
2019-05-05T00:56:29.166Z,7.20
2019-05-05T00:58:35.298Z,7.30
2019-05-05T01:00:40.759Z,7.30
2019-05-05T01:02:46.014Z,7.60
2019-05-05T01:04:51.246Z,7.50
2019-05-05T01:06:55.027Z,7.80
2019-05-05T01:08:58.811Z,8.20
2019-05-05T01:11:04.143Z,8.60
2019-05-05T01:13:08.126Z,8.40
2019-05-05T01:15:11.782Z,8.60
2019-05-05T01:17:15.511Z,8.80
2019-05-05T01:19:19.185Z,8.90
2019-05-05T01:21:24.436Z,8.90
2019-05-05T01:23:28.214Z,8.70
2019-05-05T01:25:31.865Z,8.50
2019-05-05T01:27:35.529Z,8.40
2019-05-05T01:29:39.254Z,8.40
2019-05-05T01:31:45.062Z,8.20
2019-05-05T01:34:08.010Z,8.60
2019-05-05T01:36:11.670Z,8.20
2019-05-05T01:38:19.749Z,8.60
2019-05-05T01:40:25.075Z,8.20
2019-05-05T01:42:28.727Z,8.70
2019-05-05T01:44:32.403Z,9.10
2019-05-05T01:46:36.062Z,9.10
2019-05-05T01:48:44.400Z,9.10
2019-05-05T01:50:47.948Z,9.40
2019-05-05T01:52:51.603Z,9.20
2019-05-05T01:54:55.282Z,9.40
2019-05-05T01:56:58.942Z,9.60
2019-05-05T01:59:04.987Z,9.40
2019-05-05T02:01:08.134Z,9.70
2019-05-05T02:03:11.877Z,9.00
2019-05-05T02:05:15.907Z,9.30
2019-05-05T02:07:19.630Z,9.20
2019-05-05T02:09:24.975Z,9.40
2019-05-05T02:11:28.847Z,9.40
2019-05-05T02:13:34.479Z,9.50
2019-05-05T02:15:37.902Z,9.60
2019-05-05T02:17:41.588Z,9.70
2019-05-05T02:19:45.323Z,9.80
2019-05-05T02:21:48.983Z,10.10
2019-05-05T02:23:54.541Z,10.00
2019-05-05T02:25:58.215Z,9.80
2019-05-05T02:28:01.887Z,9.30
2019-05-05T02:30:09.703Z,9.60
2019-05-05T02:32:17.615Z,9.40
2019-05-05T02:34:21.274Z,9.60
2019-05-05T02:36:25.758Z,9.30
2019-05-05T02:38:29.778Z,9.20
2019-05-05T02:40:34.997Z,8.90
2019-05-05T02:42:39.215Z,8.90
2019-05-05T02:44:45.515Z,8.60
2019-05-05T02:46:55.170Z,9.10
2019-05-05T02:48:59.602Z,8.70
2019-05-05T02:51:06.737Z,8.60
2019-05-05T02:53:09.373Z,9.10
2019-05-05T02:55:14.668Z,8.20
2019-05-05T02:57:18.886Z,8.00
2019-05-05T02:59:27.100Z,8.00
2019-05-05T03:01:35.886Z,8.20
2019-05-05T03:03:39.942Z,8.30
2019-05-05T03:05:43.594Z,7.30
2019-05-05T03:07:47.375Z,7.30
2019-05-05T03:09:51.946Z,8.00
2019-05-05T03:11:57.790Z,8.30
2019-05-05T03:14:04.390Z,7.90
2019-05-05T03:16:19.704Z,7.60
2019-05-05T03:18:24.717Z,8.00
2019-05-05T03:20:28.557Z,7.80
2019-05-05T03:22:33.995Z,8.00
2019-05-05T03:24:38.182Z,7.50
2019-05-05T03:26:41.855Z,7.60
2019-05-05T03:28:48.327Z,7.40
2019-05-05T03:30:55.549Z,8.10
2019-05-05T03:32:57.382Z,8.20
2019-05-05T03:35:01.148Z,8.20
2019-05-05T03:37:04.941Z,7.80
2019-05-05T03:39:10.173Z,7.90
2019-05-05T03:41:15.389Z,8.00
2019-05-05T03:43:24.138Z,7.20
2019-05-05T03:45:34.073Z,7.40
2019-05-05T03:47:38.094Z,7.10
2019-05-05T03:49:44.079Z,7.10
2019-05-05T03:51:50.667Z,6.00
2019-05-05T03:53:54.842Z,6.20
2019-05-05T03:55:58.700Z,6.60
2019-05-05T03:58:04.126Z,7.50
2019-05-05T04:00:09.473Z,7.50
2019-05-05T04:02:14.840Z,7.50
2019-05-05T04:04:29.170Z,7.00
2019-05-05T04:06:38.417Z,7.20
2019-05-05T04:08:44.408Z,7.40
2019-05-05T04:10:48.217Z,6.90
2019-05-05T04:12:53.968Z,7.10
2019-05-05T04:14:59.135Z,6.80
2019-05-05T04:17:14.105Z,6.60
2019-05-05T04:19:19.593Z,6.10
2019-05-05T04:21:32.835Z,5.90
2019-05-05T04:23:28.754Z,6.10
2019-05-05T04:25:32.411Z,5.90
2019-05-05T04:27:36.074Z,5.40
2019-05-05T04:29:39.839Z,5.60
2019-05-05T04:31:43.592Z,5.60
2019-05-05T04:33:47.250Z,5.10
2019-05-05T04:35:51.085Z,5.10
2019-05-05T04:37:54.757Z,5.30
2019-05-05T04:39:58.534Z,5.20
2019-05-05T04:42:02.207Z,6.00
2019-05-05T04:44:05.879Z,6.00
2019-05-05T04:46:09.526Z,4.90
2019-05-05T04:48:24.206Z,6.00
2019-05-05T04:50:38.708Z,5.10
2019-05-05T04:52:43.467Z,5.00
2019-05-05T04:54:48.958Z,4.60
2019-05-05T04:56:53.996Z,5.40
2019-05-05T04:59:01.076Z,5.60
2019-05-05T05:01:04.813Z,5.40
2019-05-05T05:03:25.768Z,5.40
2019-05-05T05:05:45.839Z,5.30
2019-05-05T05:07:49.488Z,5.80
2019-05-05T05:09:54.002Z,5.40
2019-05-05T05:11:57.848Z,5.60
2019-05-05T05:14:07.198Z,6.30
2019-05-05T05:16:10.918Z,6.70
2019-05-05T05:18:16.733Z,5.50
2019-05-05T05:20:20.571Z,5.10
2019-05-05T05:22:24.444Z,5.50
2019-05-05T05:24:28.174Z,6.20
2019-05-05T05:26:33.583Z,5.80
2019-05-05T05:28:37.401Z,6.10
2019-05-05T05:30:43.950Z,6.00
2019-05-05T05:32:47.662Z,5.90
2019-05-05T05:34:51.315Z,5.80
2019-05-05T05:36:54.985Z,6.10
2019-05-05T05:39:00.205Z,6.30
2019-05-05T05:41:11.174Z,6.00
2019-05-05T05:43:16.394Z,6.10
2019-05-05T05:45:27.427Z,6.80
2019-05-05T05:47:48.441Z,7.10
2019-05-05T05:50:05.542Z,7.40
2019-05-05T05:52:18.779Z,7.70
2019-05-05T05:54:14.699Z,8.10
2019-05-05T05:56:18.451Z,6.80
2019-05-05T05:58:24.363Z,6.00
2019-05-05T06:00:27.587Z,6.10
2019-05-05T06:02:33.373Z,7.20
2019-05-05T06:04:36.650Z,7.70
2019-05-05T06:06:40.337Z,8.40
2019-05-05T06:08:44.160Z,8.50
2019-05-05T06:10:47.820Z,8.00
2019-05-05T06:12:51.603Z,6.80
2019-05-05T06:14:55.264Z,6.90
2019-05-05T06:16:58.930Z,7.30
2019-05-05T06:19:03.676Z,6.90
2019-05-05T06:21:07.446Z,6.60
2019-05-05T06:23:11.196Z,5.80
2019-05-05T06:25:15.896Z,6.40
2019-05-05T06:27:20.025Z,7.20
2019-05-05T06:29:23.990Z,7.90
2019-05-05T06:31:27.715Z,7.40
2019-05-05T06:33:34.867Z,8.10
2019-05-05T06:35:38.601Z,7.70
2019-05-05T06:37:57.216Z,8.30
2019-05-05T06:40:03.794Z,8.40
2019-05-05T06:42:27.162Z,9.20
2019-05-05T06:44:33.784Z,9.60
2019-05-05T06:46:55.478Z,9.80
2019-05-05T06:48:59.175Z,9.10
2019-05-05T06:51:03.964Z,8.00
2019-05-05T06:53:07.778Z,8.10
2019-05-05T06:55:11.529Z,7.30
2019-05-05T06:57:15.223Z,7.90
2019-05-05T06:59:18.993Z,8.70
2019-05-05T07:01:24.650Z,9.20
2019-05-05T07:03:28.142Z,9.40
2019-05-05T07:05:31.798Z,9.90
2019-05-05T07:07:35.494Z,10.10
2019-05-05T07:09:39.172Z,8.90
2019-05-05T07:11:43.634Z,8.60
2019-05-05T07:13:47.481Z,8.70
2019-05-05T07:15:51.148Z,9.00
2019-05-05T07:17:54.814Z,9.20
2019-05-05T07:19:58.492Z,9.20
2019-05-05T07:22:04.095Z,9.60
2019-05-05T07:24:07.549Z,9.00
2019-05-05T07:26:11.214Z,8.70
2019-05-05T07:28:14.897Z,8.70
2019-05-05T07:30:18.562Z,8.60
2019-05-05T07:32:24.314Z,8.40
2019-05-05T07:34:29.322Z,8.50
2019-05-05T07:36:39.969Z,8.60
2019-05-05T07:38:44.627Z,8.30
2019-05-05T07:40:48.299Z,8.10
2019-05-05T07:42:53.917Z,8.10
2019-05-05T07:44:57.358Z,8.40
2019-05-05T07:47:01.080Z,8.40
2019-05-05T07:49:04.972Z,8.80
2019-05-05T07:51:08.631Z,8.80
2019-05-05T07:53:17.527Z,9.00
2019-05-05T07:55:17.711Z,8.90
2019-05-05T07:57:21.370Z,7.80
2019-05-05T07:59:25.102Z,8.00
2019-05-05T08:01:28.757Z,8.10
2019-05-05T08:03:33.896Z,8.80
2019-05-05T08:05:37.670Z,8.30
2019-05-05T08:07:41.843Z,9.20
2019-05-05T08:09:45.524Z,9.00
2019-05-05T08:11:49.198Z,9.40
2019-05-05T08:13:54.707Z,9.70
2019-05-05T08:16:00.286Z,10.20
2019-05-05T08:18:05.600Z,9.20
2019-05-05T08:20:19.718Z,9.10
2019-05-05T08:22:23.614Z,8.60
2019-05-05T08:24:31.395Z,9.20
2019-05-05T08:26:36.698Z,9.40
2019-05-05T08:28:44.655Z,8.40
2019-05-05T08:30:59.190Z,7.60
2019-05-05T08:33:04.647Z,7.70
2019-05-05T08:35:08.834Z,7.90
2019-05-05T08:37:14.504Z,7.40
2019-05-05T08:39:17.861Z,7.80
2019-05-05T08:41:21.549Z,8.50
2019-05-05T08:43:25.306Z,8.30
2019-05-05T08:45:29.141Z,8.60
2019-05-05T08:47:34.584Z,7.60
2019-05-05T08:49:38.441Z,7.40
2019-05-05T08:51:44.108Z,7.40
2019-05-05T08:53:48.464Z,7.40
2019-05-05T08:55:54.505Z,8.30
2019-05-05T08:57:57.762Z,7.60
2019-05-05T09:00:01.415Z,8.30
2019-05-05T09:02:05.097Z,9.30
2019-05-05T09:04:14.030Z,9.60
2019-05-05T09:06:17.177Z,9.10
2019-05-05T09:08:20.841Z,9.50
2019-05-05T09:10:24.603Z,10.20
2019-05-05T09:12:28.350Z,10.30
2019-05-05T09:14:32.010Z,9.60
2019-05-05T09:16:35.706Z,9.80
2019-05-05T09:18:40.931Z,9.40
2019-05-05T09:20:44.792Z,8.60
2019-05-05T09:22:48.613Z,9.00
2019-05-05T09:24:56.635Z,8.90
2019-05-05T09:27:03.669Z,9.60
2019-05-05T09:29:20.256Z,10.00
2019-05-05T09:31:24.032Z,9.90
2019-05-05T09:33:27.756Z,9.00
2019-05-05T09:35:31.438Z,9.60
2019-05-05T09:37:35.261Z,8.80
2019-05-05T09:39:38.924Z,9.20
2019-05-05T09:41:44.471Z,9.30
2019-05-05T09:43:47.990Z,9.60
2019-05-05T09:45:51.666Z,9.90
2019-05-05T09:47:55.338Z,9.90
2019-05-05T09:49:59.006Z,9.80
2019-05-05T09:52:04.798Z,9.90
2019-05-05T09:54:14.085Z,10.40
2019-05-05T09:56:14.554Z,9.80
2019-05-05T09:58:18.352Z,10.30
2019-05-05T10:00:24.270Z,10.80
2019-05-05T10:02:27.667Z,10.00
2019-05-05T10:04:31.846Z,9.60
2019-05-05T10:06:35.899Z,8.40
2019-05-05T10:08:39.771Z,8.90
2019-05-05T10:10:44.224Z,9.60
2019-05-05T10:12:48.094Z,9.60
2019-05-05T10:14:54.033Z,10.30
2019-05-05T10:16:57.160Z,10.20
2019-05-05T10:19:00.847Z,9.80
2019-05-05T10:21:04.778Z,9.90
2019-05-05T10:23:08.460Z,9.40
2019-05-05T10:25:29.562Z,9.30
2019-05-05T10:27:44.641Z,9.30
2019-05-05T10:29:38.627Z,9.20
2019-05-05T10:31:43.721Z,8.70
2019-05-05T10:33:49.124Z,8.50
2019-05-05T10:35:54.123Z,9.20
2019-05-05T10:37:57.923Z,9.30
2019-05-05T10:40:03.531Z,8.80
2019-05-05T10:42:06.996Z,9.00
2019-05-05T10:44:10.677Z,9.50
2019-05-05T10:46:14.444Z,9.70
2019-05-05T10:48:18.160Z,9.60
2019-05-05T10:50:21.912Z,9.00
2019-05-05T10:52:25.567Z,8.00
2019-05-05T10:54:40.545Z,8.00
2019-05-05T10:56:34.742Z,8.50
2019-05-05T10:58:38.426Z,8.30
2019-05-05T11:00:44.757Z,7.80
2019-05-05T11:02:48.449Z,7.90
2019-05-05T11:04:52.139Z,8.00
2019-05-05T11:06:55.942Z,8.10
2019-05-05T11:08:59.830Z,8.40
2019-05-05T11:11:04.239Z,8.40
2019-05-05T11:13:08.066Z,8.80
2019-05-05T11:15:11.872Z,8.80
2019-05-05T11:17:15.543Z,8.00
2019-05-05T11:19:19.242Z,8.10
2019-05-05T11:21:23.712Z,8.30
2019-05-05T11:23:27.469Z,8.40
2019-05-05T11:25:31.229Z,8.40
2019-05-05T11:27:34.887Z,8.50
2019-05-05T11:29:40.159Z,8.90
2019-05-05T11:31:43.890Z,9.00
2019-05-05T11:33:54.840Z,8.10
2019-05-05T11:36:04.470Z,8.10
2019-05-05T11:38:08.260Z,7.40
2019-05-05T11:40:13.818Z,8.00
2019-05-05T11:42:17.508Z,8.70
2019-05-05T11:44:21.199Z,8.20
2019-05-05T11:46:24.929Z,8.30
2019-05-05T11:48:28.666Z,8.90
2019-05-05T11:50:34.224Z,9.00
2019-05-05T11:52:37.950Z,9.20
2019-05-05T11:54:45.342Z,9.80
2019-05-05T11:56:49.044Z,9.80
2019-05-05T11:58:54.494Z,9.50
2019-05-05T12:00:58.151Z,9.50
2019-05-05T12:03:03.768Z,9.00
2019-05-05T12:05:07.414Z,9.20
2019-05-05T12:07:11.097Z,8.50
2019-05-05T12:09:16.319Z,8.30
2019-05-05T12:11:20.003Z,8.30
2019-05-05T12:13:23.740Z,8.00
2019-05-05T12:15:27.698Z,7.90
2019-05-05T12:17:34.523Z,8.40
2019-05-05T12:19:38.191Z,8.80
2019-05-05T12:21:44.062Z,9.50
2019-05-05T12:23:47.242Z,9.50
2019-05-05T12:25:56.950Z,10.10
2019-05-05T12:28:04.205Z,10.30
2019-05-05T12:30:08.363Z,9.50
2019-05-05T12:32:12.945Z,9.20
2019-05-05T12:34:17.455Z,8.70
2019-05-05T12:36:21.206Z,9.40
2019-05-05T12:38:24.922Z,9.40
2019-05-05T12:40:28.575Z,8.30
2019-05-05T12:42:32.223Z,8.20
2019-05-05T12:44:37.572Z,8.70
2019-05-05T12:46:48.311Z,7.80
2019-05-05T12:48:54.274Z,7.80
2019-05-05T12:50:57.998Z,8.40
2019-05-05T12:53:03.909Z,8.30
2019-05-05T12:55:07.058Z,7.70
2019-05-05T12:57:10.728Z,8.20
2019-05-05T12:59:15.967Z,9.00
2019-05-05T13:01:33.634Z,10.00
2019-05-05T13:03:37.409Z,10.60
2019-05-05T13:05:41.073Z,10.90
2019-05-05T13:07:44.739Z,11.00
2019-05-05T13:09:48.439Z,11.30
2019-05-05T13:11:54.106Z,11.50
2019-05-05T13:13:57.602Z,11.30
2019-05-05T13:16:01.267Z,11.10
2019-05-05T13:18:04.910Z,10.70
2019-05-05T13:20:14.165Z,10.90
2019-05-05T13:22:28.021Z,11.50
2019-05-05T13:24:36.316Z,11.40
2019-05-05T13:26:44.094Z,11.20
2019-05-05T13:28:47.784Z,10.40
2019-05-05T13:30:51.462Z,10.30
2019-05-05T13:32:55.122Z,10.10
2019-05-05T13:34:58.804Z,10.40
2019-05-05T13:37:03.607Z,9.70
2019-05-05T13:39:08.617Z,9.90
2019-05-05T13:41:12.274Z,9.20
2019-05-05T13:43:15.938Z,9.50
2019-05-05T13:45:21.265Z,9.90
2019-05-05T13:47:25.010Z,10.70
2019-05-05T13:49:33.232Z,10.80
2019-05-05T13:51:36.894Z,10.70
2019-05-05T13:53:40.561Z,11.20
2019-05-05T13:55:46.120Z,11.00
2019-05-05T13:57:49.980Z,10.90
2019-05-05T13:59:54.564Z,10.80
2019-05-05T14:01:58.342Z,10.20
2019-05-05T14:04:02.021Z,10.00
2019-05-05T14:06:05.729Z,9.70
2019-05-05T14:08:09.459Z,10.30
2019-05-05T14:10:14.446Z,10.70
2019-05-05T14:12:18.262Z,11.10
2019-05-05T14:14:24.126Z,11.30
2019-05-05T14:16:27.338Z,11.20
2019-05-05T14:18:31.011Z,10.90
2019-05-05T14:20:34.722Z,10.40
2019-05-05T14:22:38.375Z,10.50
2019-05-05T14:24:44.458Z,9.90
2019-05-05T14:26:48.302Z,10.00
2019-05-05T14:28:53.638Z,10.20
2019-05-05T14:30:58.888Z,10.40
2019-05-05T14:33:03.758Z,10.20
2019-05-05T14:35:15.366Z,10.10
2019-05-05T14:37:33.961Z,9.80
2019-05-05T14:39:37.567Z,10.00
2019-05-05T14:41:42.014Z,10.00
2019-05-05T14:43:47.054Z,10.00
2019-05-05T14:45:50.696Z,10.90
2019-05-05T14:47:54.382Z,10.80
2019-05-05T14:49:59.336Z,10.30
2019-05-05T14:52:04.418Z,10.60
2019-05-05T14:54:10.734Z,10.40
2019-05-05T14:56:13.835Z,11.10
2019-05-05T14:58:17.529Z,10.80
2019-05-05T15:00:24.237Z,10.90
2019-05-05T15:02:28.079Z,11.10
2019-05-05T15:04:34.487Z,11.30
2019-05-05T15:06:43.970Z,10.90
2019-05-05T15:08:55.293Z,11.10
2019-05-05T15:11:00.620Z,11.10
2019-05-05T15:13:06.878Z,10.80
2019-05-05T15:15:10.669Z,9.70
2019-05-05T15:17:14.378Z,10.40
2019-05-05T15:19:18.181Z,10.50
2019-05-05T15:21:23.641Z,11.60
2019-05-05T15:23:27.473Z,11.00
2019-05-05T15:25:31.137Z,11.30
2019-05-05T15:27:34.940Z,11.00
2019-05-05T15:29:38.654Z,10.50
2019-05-05T15:31:43.516Z,10.60
2019-05-05T15:33:47.281Z,10.70
2019-05-05T15:35:50.955Z,10.50
2019-05-05T15:37:54.651Z,10.10
2019-05-05T15:39:58.392Z,9.60
2019-05-05T15:42:02.072Z,9.80
2019-05-05T15:44:05.786Z,8.70
2019-05-05T15:46:09.422Z,9.50
2019-05-05T15:48:14.061Z,9.60
2019-05-05T15:50:17.862Z,10.00
2019-05-05T15:52:21.514Z,10.00
2019-05-05T15:54:25.273Z,10.10
2019-05-05T15:56:28.925Z,10.30
2019-05-05T15:58:34.214Z,10.80
2019-05-05T16:00:38.073Z,10.50
2019-05-05T16:02:43.985Z,10.40
2019-05-05T16:04:47.263Z,10.30
2019-05-05T16:06:50.930Z,10.60
2019-05-05T16:08:56.687Z,11.00
2019-05-05T16:11:00.006Z,11.80
2019-05-05T16:13:04.488Z,12.30
2019-05-05T16:15:13.853Z,12.20
2019-05-05T16:17:19.177Z,12.50
2019-05-05T16:19:36.043Z,12.90
2019-05-05T16:21:41.287Z,12.60
2019-05-05T16:23:46.517Z,12.20
2019-05-05T16:25:50.196Z,12.30
2019-05-05T16:27:53.861Z,12.10
2019-05-05T16:29:57.555Z,12.10
2019-05-05T16:32:01.248Z,12.40
2019-05-05T16:34:04.916Z,12.40
2019-05-05T16:36:08.608Z,12.70
2019-05-05T16:38:14.702Z,12.00
2019-05-05T16:40:17.901Z,12.50
2019-05-05T16:42:21.565Z,11.80
2019-05-05T16:44:26.183Z,11.80
2019-05-05T16:46:29.860Z,11.40
2019-05-05T16:48:34.357Z,10.30
2019-05-05T16:50:38.194Z,10.30
2019-05-05T16:52:46.238Z,10.20
2019-05-05T16:55:09.592Z,10.70
2019-05-05T16:57:14.429Z,10.50
2019-05-05T16:59:18.169Z,9.70
2019-05-05T17:01:21.968Z,9.30
2019-05-05T17:03:25.634Z,8.50
2019-05-05T17:05:29.279Z,8.70
2019-05-05T17:07:34.314Z,9.20
2019-05-05T17:09:38.002Z,9.90
2019-05-05T17:11:43.953Z,9.90
2019-05-05T17:14:05.092Z,9.90
2019-05-05T17:16:10.360Z,10.20
2019-05-05T17:18:35.388Z,10.30
2019-05-05T17:20:44.434Z,10.50
2019-05-05T17:22:49.841Z,10.20
2019-05-05T17:24:53.636Z,10.30
2019-05-05T17:26:57.387Z,9.90
2019-05-05T17:29:01.084Z,9.90
2019-05-05T17:31:04.750Z,9.70
2019-05-05T17:33:08.434Z,9.20
2019-05-05T17:35:12.089Z,9.20
2019-05-05T17:37:17.257Z,9.30
2019-05-05T17:39:23.623Z,9.80
2019-05-05T17:41:44.699Z,10.60
2019-05-05T17:43:55.443Z,11.10
2019-05-05T17:46:03.869Z,11.00
2019-05-05T17:48:11.722Z,10.80
2019-05-05T17:50:25.985Z,10.40
2019-05-05T17:52:40.176Z,11.20
2019-05-05T17:54:45.659Z,11.90
2019-05-05T17:56:52.204Z,11.90
2019-05-05T17:58:54.874Z,11.80
2019-05-05T18:01:00.136Z,11.80
2019-05-05T18:03:04.391Z,11.70
2019-05-05T18:05:08.154Z,12.20
2019-05-05T18:07:16.325Z,11.80
2019-05-05T18:09:37.331Z,12.10
2019-05-05T18:11:44.187Z,12.20
2019-05-05T18:13:58.246Z,12.10
2019-05-05T18:16:04.431Z,12.00
2019-05-05T18:18:07.679Z,12.00
2019-05-05T18:20:11.430Z,12.20
2019-05-05T18:22:15.098Z,12.20
2019-05-05T18:24:18.781Z,12.10
2019-05-05T18:26:24.351Z,12.20
2019-05-05T18:28:27.847Z,12.50
2019-05-05T18:30:33.466Z,12.30
2019-05-05T18:32:36.897Z,12.50
2019-05-05T18:34:40.595Z,12.70
2019-05-05T18:36:44.643Z,12.80
2019-05-05T18:38:48.531Z,12.90
2019-05-05T18:40:53.521Z,12.80
2019-05-05T18:42:58.771Z,12.50
2019-05-05T18:45:06.871Z,12.50
2019-05-05T18:47:20.299Z,12.40
2019-05-05T18:49:23.989Z,12.20
2019-05-05T18:51:27.674Z,12.30
2019-05-05T18:53:31.395Z,11.90
2019-05-05T18:55:35.088Z,12.20
2019-05-05T18:57:38.899Z,12.40
2019-05-05T18:59:44.532Z,12.30
2019-05-05T19:01:52.370Z,12.30
2019-05-05T19:04:06.111Z,12.40
2019-05-05T19:06:17.378Z,12.50
2019-05-05T19:08:24.367Z,12.60
2019-05-05T19:10:28.201Z,12.60
2019-05-05T19:12:31.869Z,12.60
2019-05-05T19:14:35.603Z,12.70
2019-05-05T19:16:39.298Z,12.70
2019-05-05T19:18:44.774Z,12.80
2019-05-05T19:20:56.015Z,12.80
2019-05-05T19:23:05.740Z,12.70
2019-05-05T19:25:17.155Z,12.60
2019-05-05T19:27:20.819Z,12.40
2019-05-05T19:29:24.503Z,12.20
2019-05-05T19:31:28.194Z,12.10
2019-05-05T19:33:33.925Z,12.00
2019-05-05T19:35:44.333Z,12.00
2019-05-05T19:37:44.536Z,12.00
2019-05-05T19:39:48.045Z,12.00
2019-05-05T19:41:54.085Z,12.10
2019-05-05T19:43:57.180Z,12.20
2019-05-05T19:46:00.873Z,12.10
2019-05-05T19:48:06.002Z,12.10
2019-05-05T19:50:24.834Z,11.90
2019-05-05T19:52:28.550Z,11.70
2019-05-05T19:54:34.054Z,11.70
2019-05-05T19:56:37.638Z,11.80
2019-05-05T19:58:55.059Z,11.70
2019-05-05T20:00:46.844Z,11.70
2019-05-05T20:03:01.289Z,11.50
2019-05-05T20:04:55.945Z,11.30
2019-05-05T20:06:59.642Z,11.30
2019-05-05T20:09:05.003Z,11.30
2019-05-05T20:11:08.659Z,11.10
2019-05-05T20:13:13.829Z,11.10
2019-05-05T20:15:23.876Z,11.10
2019-05-05T20:17:33.598Z,11.10
2019-05-05T20:19:38.761Z,10.50
2019-05-05T20:21:43.905Z,10.50
2019-05-05T20:23:47.693Z,10.50
2019-05-05T20:25:51.345Z,10.20
2019-05-05T20:27:56.020Z,10.40
2019-05-05T20:29:59.810Z,10.50
2019-05-05T20:32:04.291Z,10.40
2019-05-05T20:34:25.508Z,10.20
2019-05-05T20:36:34.614Z,9.60
2019-05-05T20:38:52.086Z,9.60
2019-05-05T20:41:13.958Z,9.30
2019-05-05T20:43:17.262Z,9.00
2019-05-05T20:45:23.833Z,8.70
2019-05-05T20:47:28.087Z,8.60
2019-05-05T20:49:31.762Z,8.80
2019-05-05T20:51:35.463Z,8.90
2019-05-05T20:53:39.135Z,8.90
2019-05-05T20:55:44.797Z,9.00
2019-05-05T20:57:48.163Z,9.00
2019-05-05T20:59:52.030Z,8.90
2019-05-05T21:01:55.667Z,8.90
2019-05-05T21:03:59.440Z,8.90
2019-05-05T21:06:04.359Z,8.90
2019-05-05T21:08:08.398Z,8.80
2019-05-05T21:10:14.183Z,8.90
2019-05-05T21:12:17.430Z,9.00
2019-05-05T21:14:33.691Z,9.10
2019-05-05T21:16:26.495Z,9.00
2019-05-05T21:18:30.183Z,9.10
2019-05-05T21:20:34.706Z,9.20
2019-05-05T21:22:48.834Z,9.30
2019-05-05T21:24:54.235Z,9.20
2019-05-05T21:27:04.083Z,9.10
2019-05-05T21:29:08.074Z,9.00
2019-05-05T21:31:11.717Z,9.00
2019-05-05T21:33:15.416Z,8.80
2019-05-05T21:35:19.079Z,8.80
2019-05-05T21:37:25.143Z,8.60
2019-05-05T21:39:28.827Z,8.70
2019-05-05T21:41:33.948Z,8.70
2019-05-05T21:43:37.746Z,8.70
2019-05-05T21:45:41.470Z,8.70
2019-05-05T21:47:45.135Z,8.70
2019-05-05T21:49:48.819Z,8.40
2019-05-05T21:51:54.118Z,8.40
2019-05-05T21:54:08.322Z,8.20
2019-05-05T21:56:28.201Z,7.90
2019-05-05T21:58:46.677Z,8.00
2019-05-05T22:00:51.893Z,7.80
2019-05-05T22:02:55.610Z,7.80
2019-05-05T22:04:59.294Z,8.00
2019-05-05T22:07:03.753Z,8.10
2019-05-05T22:09:08.212Z,8.40
2019-05-05T22:11:11.950Z,8.40
2019-05-05T22:13:15.698Z,8.40
2019-05-05T22:15:19.535Z,8.40
2019-05-05T22:17:23.189Z,8.30
2019-05-05T22:19:28.437Z,8.40
2019-05-05T22:21:35.663Z,8.50
2019-05-05T22:23:39.035Z,8.60
2019-05-05T22:25:43.770Z,8.70
2019-05-05T22:27:47.467Z,8.80
2019-05-05T22:29:51.116Z,9.00
2019-05-05T22:31:54.886Z,9.10
2019-05-05T22:33:58.551Z,9.00
2019-05-05T22:36:04.425Z,8.90
2019-05-05T22:38:07.606Z,9.00
2019-05-05T22:40:19.493Z,9.00
2019-05-05T22:42:24.671Z,9.10
2019-05-05T22:44:28.395Z,9.10
2019-05-05T22:46:32.143Z,8.90
2019-05-05T22:48:35.794Z,8.80
2019-05-05T22:50:39.451Z,8.60
2019-05-05T22:52:44.692Z,8.60
2019-05-05T22:54:48.387Z,8.70
2019-05-05T22:56:53.866Z,8.50
2019-05-05T22:58:57.699Z,8.60
2019-05-05T23:01:01.374Z,8.70
2019-05-05T23:03:13.663Z,8.70
2019-05-05T23:05:30.515Z,8.80
2019-05-05T23:07:34.938Z,8.80
2019-05-05T23:09:38.731Z,8.70
2019-05-05T23:11:44.622Z,8.50
2019-05-05T23:13:48.397Z,8.70
2019-05-05T23:15:59.358Z,8.60
2019-05-05T23:18:10.458Z,8.20
2019-05-05T23:20:30.490Z,7.90
2019-05-05T23:22:38.650Z,7.70
2019-05-05T23:24:46.523Z,7.40
2019-05-05T23:26:51.765Z,7.70
2019-05-05T23:28:55.434Z,7.60
2019-05-05T23:30:59.121Z,7.00
2019-05-05T23:33:02.799Z,7.40
2019-05-05T23:35:06.717Z,7.10
2019-05-05T23:37:10.410Z,6.90
2019-05-05T23:39:14.058Z,7.10
2019-05-05T23:41:17.727Z,7.10
2019-05-05T23:43:21.503Z,6.80
2019-05-05T23:45:25.171Z,7.10
2019-05-05T23:47:28.843Z,7.10
2019-05-05T23:49:34.350Z,6.80
2019-05-05T23:51:37.870Z,7.00
2019-05-05T23:53:41.548Z,6.60
2019-05-05T23:55:45.305Z,6.50
2019-05-05T23:57:48.974Z,6.20
2019-05-05T23:59:53.779Z,6.60
